SE Lincoln WX Station Historical Data
 
Daily Summary for May 17, 2022 Units:  English    Metric   Both
Daily Weekly Monthly Yearly
  Current: High: Low: Average:
Temperature: 76.6 °F 76.6 °F 65.1 °F 68.6 °F
Dew Point: 57.2 °F 57.2 °F 50.8 °F 53.4 °F
Humidity: 51.2% 66% 51% 59%
Wind Speed: 6.8mph 7.4mph 0.3mph 3.5mph
Wind Gust: 14mph 19mph - -
WindSSE - - South
Pressure: 29.83 in 29.92 in 29.82 in -
Precipitation: 0.00 in      
 
 
Tabular Data for May 17, 2022
Time Temperature Dew Point Pressure Wind Wind Speed Wind Gust Humidity Rainfall Rate (Hourly) solar
00:04 69.9 °F 51 °F 29.91 in SSE 2.9 mph 7 mph 51% 0.00 in 0 W/m2
00:09 69.8 °F 50.8 °F 29.91 in South 3.6 mph 10 mph 51% 0.00 in 0 W/m2
00:14 69.6 °F 51 °F 29.91 in South 3.1 mph 6 mph 51.5% 0.00 in 0 W/m2
00:19 69.5 °F 51.2 °F 29.91 in South 1.8 mph 8 mph 52% 0.00 in 0 W/m2
00:24 69.3 °F 51.5 °F 29.91 in SSE 2.5 mph 5 mph 53% 0.00 in 0 W/m2
00:29 69.2 °F 51.3 °F 29.91 in SSE 3.1 mph 7 mph 53% 0.00 in 0 W/m2
00:34 69.1 °F 51.4 °F 29.91 in South 2.5 mph 7 mph 53.3% 0.00 in 0 W/m2
00:39 68.9 °F 51.5 °F 29.91 in SSE 2.5 mph 7 mph 53.8% 0.00 in 0 W/m2
00:44 68.8 °F 51.5 °F 29.91 in South 1.9 mph 6 mph 54% 0.00 in 0 W/m2
00:49 68.7 °F 51.4 °F 29.91 in South 1.5 mph 5 mph 54% 0.00 in 0 W/m2
00:54 68.7 °F 51.5 °F 29.91 in South 2.4 mph 7 mph 54.2% 0.00 in 0 W/m2
00:59 68.6 °F 51.8 °F 29.91 in SSE 2.3 mph 7 mph 55% 0.00 in 0 W/m2
01:04 68.5 °F 51.7 °F 29.91 in SSE 2 mph 6 mph 55% 0.00 in 0 W/m2
01:09 68.5 °F 51.7 °F 29.91 in SSE 2.2 mph 7 mph 55% 0.00 in 0 W/m2
01:14 68.5 °F 51.7 °F 29.91 in SSE 2.8 mph 7 mph 55% 0.00 in 0 W/m2
01:19 68.5 °F 51.9 °F 29.90 in SSE 3.3 mph 8 mph 55.3% 0.00 in 0 W/m2
01:24 68.6 °F 51.8 °F 29.91 in South 2.9 mph 8 mph 55% 0.00 in 0 W/m2
01:29 68.6 °F 51.8 °F 29.91 in South 1.9 mph 7 mph 55% 0.00 in 0 W/m2
01:34 68.6 °F 52.3 °F 29.91 in SSW 1.8 mph 5 mph 56% 0.00 in 0 W/m2
01:39 68.5 °F 52.2 °F 29.91 in South 1.7 mph 5 mph 56% 0.00 in 0 W/m2
01:44 68.4 °F 52.1 °F 29.91 in South 2.2 mph 5 mph 56% 0.00 in 0 W/m2
01:49 68.4 °F 52.2 °F 29.91 in South 2.9 mph 7 mph 56.2% 0.00 in 0 W/m2
01:54 68.4 °F 52.3 °F 29.91 in South 2 mph 6 mph 56.3% 0.00 in 0 W/m2
01:59 68.3 °F 52.4 °F 29.91 in SSW 2.2 mph 7 mph 56.8% 0.00 in 0 W/m2
02:04 68.2 °F 52.4 °F 29.92 in SW 3.2 mph 5 mph 56.8% 0.00 in 0 W/m2
02:09 68.1 °F 52.2 °F 29.92 in SSW 3.4 mph 8 mph 56.9% 0.00 in 0 W/m2
02:14 68 °F 52.6 °F 29.91 in SSW 3.2 mph 7 mph 57.8% 0.00 in 0 W/m2
02:19 67.9 °F 52.6 °F 29.92 in SW 3.3 mph 7 mph 58% 0.00 in 0 W/m2
02:24 67.8 °F 52.5 °F 29.92 in SW 3.5 mph 8 mph 58% 0.00 in 0 W/m2
02:29 67.8 °F 52.1 °F 29.92 in SW 3.3 mph 8 mph 57.1% 0.00 in 0 W/m2
02:34 67.8 °F 52 °F 29.92 in SSW 2.9 mph 8 mph 57% 0.00 in 0 W/m2
02:39 67.7 °F 52.3 °F 29.92 in SSW 3.5 mph 7 mph 57.7% 0.00 in 0 W/m2
02:44 67.6 °F 52.7 °F 29.92 in SSW 2.4 mph 7 mph 58.9% 0.00 in 0 W/m2
02:49 67.4 °F 52.8 °F 29.91 in South 2.7 mph 6 mph 59.6% 0.00 in 0 W/m2
02:54 67.1 °F 52.8 °F 29.91 in SSW 1.7 mph 6 mph 60% 0.00 in 0 W/m2
02:59 66.9 °F 53 °F 29.90 in SSW 1.7 mph 4 mph 61% 0.00 in 0 W/m2
03:04 66.6 °F 52.8 °F 29.90 in SSW 2.1 mph 5 mph 61.2% 0.00 in 0 W/m2
03:09 66.4 °F 53 °F 29.90 in SSW 1.9 mph 5 mph 62% 0.00 in 0 W/m2
03:14 66.2 °F 53.1 °F 29.90 in SSW 1.6 mph 4 mph 62.8% 0.00 in 0 W/m2
03:19 65.9 °F 53 °F 29.90 in South 1.9 mph 6 mph 63% 0.00 in 0 W/m2
03:24 65.8 °F 52.9 °F 29.90 in SSW 1.3 mph 5 mph 63.3% 0.00 in 0 W/m2
03:29 65.6 °F 53.1 °F 29.91 in SSW 1.8 mph 5 mph 64% 0.00 in 0 W/m2
03:34 65.5 °F 53.3 °F 29.91 in South 1.7 mph 5 mph 64.6% 0.00 in 0 W/m2
03:39 65.5 °F 53.4 °F 29.90 in SSW 1.5 mph 5 mph 65% 0.00 in 0 W/m2
03:44 65.5 °F 53.4 °F 29.90 in South 2.3 mph 6 mph 65% 0.00 in 0 W/m2
03:49 65.6 °F 53.5 °F 29.90 in SSE 2.8 mph 6 mph 65% 0.00 in 0 W/m2
03:54 65.7 °F 53.3 °F 29.89 in South 3.1 mph 7 mph 64.2% 0.00 in 0 W/m2
03:59 65.7 °F 53.3 °F 29.88 in South 2.5 mph 7 mph 64.3% 0.00 in 0 W/m2
04:04 65.7 °F 53.6 °F 29.88 in South 3.3 mph 8 mph 65% 0.00 in 0 W/m2
04:09 65.6 °F 53.6 °F 29.87 in South 1.6 mph 6 mph 65% 0.00 in 0 W/m2
04:14 65.7 °F 53.6 °F 29.87 in South 3.7 mph 11 mph 65% 0.00 in 0 W/m2
04:19 65.7 °F 53.6 °F 29.86 in South 3.5 mph 7 mph 65% 0.00 in 0 W/m2
04:24 65.6 °F 53.5 °F 29.86 in SSE 3.3 mph 7 mph 65% 0.00 in 0 W/m2
04:29 65.5 °F 53.5 °F 29.86 in South 2.6 mph 8 mph 65% 0.00 in 0 W/m2
04:34 65.4 °F 53.4 °F 29.86 in South 3 mph 8 mph 65% 0.00 in 0 W/m2
04:39 65.3 °F 53.5 °F 29.86 in South 2.9 mph 8 mph 65.7% 0.00 in 0 W/m2
04:44 65.1 °F 53.5 °F 29.86 in South 3.4 mph 7 mph 66% 0.00 in 0 W/m2
04:49 65.1 °F 53.5 °F 29.86 in South 3.8 mph 10 mph 66% 0.00 in 0 W/m2
04:54 65.1 °F 53.5 °F 29.84 in SSE 4.9 mph 9 mph 66% 0.00 in 0 W/m2
04:59 65.2 °F 53.3 °F 29.83 in SSE 4.9 mph 10 mph 65.2% 0.00 in 0 W/m2
05:04 65.5 °F 53.3 °F 29.83 in SSE 5.5 mph 11 mph 64.6% 0.00 in 0 W/m2
05:09 66 °F 53.2 °F 29.82 in SSE 5.4 mph 14 mph 63.3% 0.00 in 0 W/m2
05:14 66.4 °F 53.2 °F 29.82 in South 4.6 mph 10 mph 62.6% 0.00 in 0 W/m2
05:19 66.7 °F 53.3 °F 29.84 in South 5.1 mph 11 mph 62% 0.00 in 0 W/m2
05:24 66.9 °F 53.4 °F 29.84 in SSW 4 mph 10 mph 62% 0.00 in 0 W/m2
05:29 66.9 °F 53.5 °F 29.84 in South 4 mph 11 mph 62.2% 0.00 in 0 W/m2
05:34 66.9 °F 53.5 °F 29.84 in South 6.9 mph 16 mph 62.1% 0.00 in 0 W/m2
05:39 67 °F 53.2 °F 29.83 in South 6.5 mph 19 mph 61.1% 0.00 in 0 W/m2
05:44 67 °F 53.1 °F 29.83 in SSE 6.7 mph 17 mph 61% 0.00 in 0 W/m2
05:49 67 °F 52.9 °F 29.83 in SSE 6.2 mph 12 mph 60.6% 0.00 in 0 W/m2
05:54 67 °F 52.7 °F 29.82 in SSE 7.1 mph 13 mph 60% 0.00 in 0 W/m2
05:59 67 °F 52.7 °F 29.83 in South 5.3 mph 12 mph 60% 0.00 in 0 W/m2
06:04 66.9 °F 52.8 °F 29.83 in South 5.8 mph 14 mph 60.4% 0.00 in 0 W/m2
06:09 67 °F 52.7 °F 29.83 in South 5.3 mph 12 mph 60.2% 0.00 in 5 W/m2
06:14 66.8 °F 52.9 °F 29.83 in South 4.4 mph 12 mph 61% 0.00 in 7 W/m2
06:19 66.6 °F 52.7 °F 29.83 in SSE 2.4 mph 10 mph 60.9% 0.00 in 12 W/m2
06:24 66.5 °F 52.7 °F 29.83 in South 3.8 mph 8 mph 61% 0.00 in 21 W/m2
06:29 66.4 °F 52.6 °F 29.83 in South 4.1 mph 9 mph 61% 0.00 in 30 W/m2
06:34 66.4 °F 52.5 °F 29.84 in South 3.2 mph 6 mph 61% 0.00 in 35 W/m2
06:39 66.3 °F 52.5 °F 29.84 in South 3 mph 7 mph 61.1% 0.00 in 49 W/m2
06:44 66.3 °F 52.8 °F 29.85 in South 2.1 mph 7 mph 61.8% 0.00 in 56 W/m2
06:49 66.4 °F 52.8 °F 29.84 in South 2 mph 7 mph 61.7% 0.00 in 65 W/m2
06:54 66.5 °F 53 °F 29.84 in South 3.3 mph 8 mph 61.9% 0.00 in 74 W/m2
06:59 66.5 °F 52.8 °F 29.84 in SSE 3.7 mph 8 mph 61.2% 0.00 in 95 W/m2
07:04 66.6 °F 53.1 °F 29.83 in SSE 4.1 mph 8 mph 61.8% 0.00 in 109 W/m2
07:09 66.8 °F 53.3 °F 29.83 in SSE 2.6 mph 8 mph 61.8% 0.00 in 113 W/m2
07:14 67 °F 53.2 °F 29.83 in SE 3.4 mph 8 mph 61.3% 0.00 in 139 W/m2
07:19 67.3 °F 53.4 °F 29.83 in SSE 3.7 mph 8 mph 61% 0.00 in 160 W/m2
07:24 67.5 °F 53.5 °F 29.83 in South 3.1 mph 8 mph 60.9% 0.00 in 174 W/m2
07:29 67.8 °F 53.4 °F 29.83 in SE 5.8 mph 12 mph 60% 0.00 in 186 W/m2
07:34 68 °F 53.3 °F 29.83 in SSE 3.8 mph 12 mph 59.3% 0.00 in 199 W/m2
07:39 68.3 °F 53.6 °F 29.83 in South 3.5 mph 8 mph 59.3% 0.00 in 209 W/m2
07:44 68.6 °F 53.7 °F 29.84 in South 1.7 mph 8 mph 59% 0.00 in 211 W/m2
07:49 68.9 °F 54 °F 29.84 in NNE 1.9 mph 7 mph 58.8% 0.00 in 209 W/m2
07:54 69.2 °F 54 °F 29.84 in South 1.2 mph 2 mph 58.4% 0.00 in 232 W/m2
07:59 69.3 °F 53.9 °F 29.85 in South 1.6 mph 5 mph 58% 0.00 in 255 W/m2
08:04 69.6 °F 54.2 °F 29.84 in NE 0.3 mph 2 mph 58% 0.00 in 267 W/m2
08:09 70 °F 54.3 °F 29.84 in SE 2.2 mph 6 mph 57.5% 0.00 in 285 W/m2
08:14 70.2 °F 54 °F 29.84 in SSE 3.8 mph 9 mph 56.4% 0.00 in 302 W/m2
08:19 70.2 °F 53.8 °F 29.83 in SSE 4.9 mph 9 mph 56.1% 0.00 in 320 W/m2
08:24 70.3 °F 54 °F 29.83 in SSE 3.5 mph 8 mph 56.2% 0.00 in 338 W/m2
08:29 70.6 °F 54.4 °F 29.83 in SSE 3.1 mph 7 mph 56.4% 0.00 in 346 W/m2
08:34 71.1 °F 54.6 °F 29.83 in SSE 4.2 mph 11 mph 56% 0.00 in 360 W/m2
08:39 71.2 °F 54.6 °F 29.83 in SSE 4 mph 11 mph 55.8% 0.00 in 371 W/m2
08:44 71.5 °F 54.5 °F 29.83 in SSE 5.1 mph 11 mph 55% 0.00 in 381 W/m2
08:49 71.6 °F 54.6 °F 29.83 in SSE 5.6 mph 11 mph 55% 0.00 in 388 W/m2
08:54 71.9 °F 54.6 °F 29.83 in SSE 4.9 mph 11 mph 54.5% 0.00 in 387 W/m2
08:59 72.2 °F 54.7 °F 29.83 in SE 5.3 mph 13 mph 54.2% 0.00 in 383 W/m2
09:04 72.6 °F 55 °F 29.83 in SE 4 mph 10 mph 54% 0.00 in 376 W/m2
09:09 73.3 °F 55.5 °F 29.84 in SSE 3.1 mph 7 mph 53.7% 0.00 in 371 W/m2
09:14 74 °F 55.5 °F 29.84 in South 3.2 mph 8 mph 52.4% 0.00 in 378 W/m2
09:19 74.3 °F 55.7 °F 29.84 in SSE 4.2 mph 9 mph 52.4% 0.00 in 401 W/m2
09:24 74.6 °F 55.9 °F 29.84 in SSE 3.9 mph 11 mph 52.2% 0.00 in 431 W/m2
09:29 74.5 °F 55.6 °F 29.84 in SSE 6.1 mph 13 mph 51.7% 0.00 in 469 W/m2
09:34 74.6 °F 56.1 °F 29.84 in SSE 4.9 mph 12 mph 52.5% 0.00 in 510 W/m2
09:39 75.1 °F 56.5 °F 29.84 in South 4.3 mph 8 mph 52.4% 0.00 in 543 W/m2
09:44 75.6 °F 56.8 °F 29.84 in South 5.8 mph 14 mph 52.2% 0.00 in 543 W/m2
09:49 75.4 °F 56.1 °F 29.84 in South 7.4 mph 13 mph 51.1% 0.00 in 559 W/m2
09:54 75.4 °F 56.5 °F 29.84 in SSE 5.4 mph 12 mph 51.8% 0.00 in 559 W/m2
09:59 75.6 °F 56.7 °F 29.84 in SSE 5.6 mph 12 mph 51.9% 0.00 in 540 W/m2
10:04 75.5 °F 56.4 °F 29.84 in SSE 5.5 mph 12 mph 51.6% 0.00 in 529 W/m2
10:09 75.9 °F 57.2 °F 29.84 in SSE 5.1 mph 10 mph 52.4% 0.00 in 526 W/m2
10:14 76.4 °F 57.2 °F 29.83 in SSE 6.7 mph 17 mph 51.4% 0.00 in 517 W/m2
10:19 76.6 °F 57.2 °F 29.83 in SSE 6.8 mph 14 mph 51.2% 0.00 in 513 W/m2
66th and South
Compliments of Weather Underground - 10.59 mb